createdAt,value
2023-02-23T00:02:21.391Z,61.73
2023-02-23T00:04:49.487Z,61.99
2023-02-23T00:07:20.537Z,61.85
2023-02-23T00:09:48.708Z,61.62
2023-02-23T00:12:17.488Z,61.52
2023-02-23T00:14:46.296Z,61.73
2023-02-23T00:17:15.116Z,62.01
2023-02-23T00:19:43.990Z,62.02
2023-02-23T00:22:12.866Z,62.16
2023-02-23T00:24:43.002Z,61.91
2023-02-23T00:27:17.566Z,62.02
2023-02-23T00:29:49.588Z,62.28
2023-02-23T00:32:22.346Z,62.82
2023-02-23T00:34:52.590Z,62.90
2023-02-23T00:37:23.020Z,63.05
2023-02-23T00:39:52.232Z,63.21
2023-02-23T00:42:20.769Z,63.60
2023-02-23T00:44:49.793Z,63.20
2023-02-23T00:47:18.192Z,63.72
2023-02-23T00:49:46.196Z,63.68
2023-02-23T00:52:14.974Z,63.96
2023-02-23T00:54:43.279Z,64.18
2023-02-23T00:57:11.490Z,64.32
2023-02-23T00:59:39.847Z,64.50
2023-02-23T01:02:08.048Z,64.22
2023-02-23T01:04:36.501Z,64.64
2023-02-23T01:07:06.645Z,64.63
2023-02-23T01:09:35.002Z,64.78
2023-02-23T01:12:07.669Z,64.78
2023-02-23T01:14:38.038Z,65.11
2023-02-23T01:17:06.169Z,65.05
2023-02-23T01:19:34.259Z,65.12
2023-02-23T01:22:04.963Z,65.26
2023-02-23T01:24:33.049Z,65.87
2023-02-23T01:27:02.548Z,66.15
2023-02-23T01:29:30.500Z,66.21
2023-02-23T01:31:58.692Z,66.39
2023-02-23T01:34:27.173Z,66.27
2023-02-23T01:36:55.261Z,66.39
2023-02-23T01:39:25.372Z,66.25
2023-02-23T01:41:54.567Z,66.13
2023-02-23T01:44:31.297Z,66.17
2023-02-23T01:46:59.524Z,65.96
2023-02-23T01:49:31.004Z,65.75
2023-02-23T01:52:08.071Z,66.06
2023-02-23T01:54:43.429Z,65.67
2023-02-23T01:57:14.753Z,65.77
2023-02-23T01:59:45.892Z,65.86
2023-02-23T02:02:16.207Z,65.16
2023-02-23T02:04:45.033Z,65.65
2023-02-23T02:07:18.401Z,65.54
2023-02-23T02:10:11.058Z,65.48
2023-02-23T02:12:44.455Z,65.65
2023-02-23T02:15:19.588Z,65.53
2023-02-23T02:18:33.511Z,65.54
2023-02-23T02:21:43.277Z,65.49
2023-02-23T02:24:14.427Z,65.87
2023-02-23T02:27:08.199Z,65.80
2023-02-23T02:29:56.128Z,66.05
2023-02-23T02:33:01.681Z,66.22
2023-02-23T02:35:38.192Z,66.07
2023-02-23T02:38:43.120Z,66.25
2023-02-23T02:41:20.891Z,65.96
2023-02-23T02:43:57.053Z,65.53
2023-02-23T02:46:31.578Z,65.53
2023-02-23T02:49:09.030Z,65.03
2023-02-23T02:51:47.025Z,64.72
2023-02-23T02:54:30.134Z,64.72
2023-02-23T02:57:02.382Z,64.51
2023-02-23T02:59:49.592Z,64.43
2023-02-23T03:02:41.934Z,64.01
2023-02-23T03:05:40.441Z,64.44
2023-02-23T03:08:36.548Z,64.51
2023-02-23T03:11:30.214Z,65.30
2023-02-23T03:14:22.464Z,65.22
2023-02-23T03:17:21.754Z,65.23
2023-02-23T03:20:44.960Z,65.12
2023-02-23T03:24:16.495Z,65.47
2023-02-23T03:27:20.709Z,65.56
2023-02-23T03:30:33.148Z,66.11
2023-02-23T03:33:26.483Z,65.71
2023-02-23T03:36:19.432Z,65.79
2023-02-23T03:39:42.702Z,65.74
2023-02-23T03:42:35.249Z,66.21
2023-02-23T03:45:32.031Z,66.21
2023-02-23T03:48:22.972Z,66.31
2023-02-23T03:51:15.926Z,66.68
2023-02-23T03:54:13.010Z,66.48
2023-02-23T03:57:05.756Z,66.08
2023-02-23T04:00:02.098Z,65.87
2023-02-23T04:02:53.159Z,65.80
2023-02-23T04:05:42.985Z,65.93
2023-02-23T04:08:33.582Z,65.43
2023-02-23T04:11:37.188Z,65.28
2023-02-23T04:14:13.684Z,65.09
2023-02-23T04:16:42.817Z,64.64
2023-02-23T04:19:12.050Z,64.83
2023-02-23T04:21:40.218Z,64.81
2023-02-23T04:24:09.629Z,64.43
2023-02-23T04:26:38.514Z,64.55
2023-02-23T04:29:06.483Z,64.89
2023-02-23T04:31:34.851Z,64.74
2023-02-23T04:34:05.085Z,64.87
2023-02-23T04:36:33.471Z,64.86
2023-02-23T04:39:01.546Z,64.87
2023-02-23T04:41:29.696Z,64.92
2023-02-23T04:43:57.802Z,65.22
2023-02-23T04:46:26.056Z,65.28
2023-02-23T04:48:54.170Z,65.12
2023-02-23T04:51:22.305Z,64.76
2023-02-23T04:53:50.687Z,65.22
2023-02-23T04:56:18.617Z,64.53
2023-02-23T04:58:46.644Z,64.75
2023-02-23T05:01:15.179Z,64.65
2023-02-23T05:03:43.798Z,64.38
2023-02-23T05:06:13.007Z,64.31
2023-02-23T05:08:41.063Z,64.38
2023-02-23T05:11:09.754Z,64.22
2023-02-23T05:13:38.847Z,64.17
2023-02-23T05:16:07.579Z,64.01
2023-02-23T05:18:35.724Z,64.21
2023-02-23T05:21:08.621Z,64.19
2023-02-23T05:23:37.397Z,64.38
2023-02-23T05:26:11.391Z,64.51
2023-02-23T05:28:41.872Z,64.10
2023-02-23T05:31:10.922Z,64.11
2023-02-23T05:33:45.915Z,63.76
2023-02-23T05:36:17.656Z,63.93
2023-02-23T05:38:46.782Z,63.78
2023-02-23T05:41:18.393Z,63.61
2023-02-23T05:43:47.778Z,63.36
2023-02-23T05:46:19.717Z,63.49
2023-02-23T05:48:49.058Z,63.15
2023-02-23T05:51:19.143Z,62.98
2023-02-23T05:53:47.310Z,62.82
2023-02-23T05:56:23.282Z,62.35
2023-02-23T05:58:54.521Z,62.53
2023-02-23T06:01:22.903Z,62.71
2023-02-23T06:03:51.380Z,62.64
2023-02-23T06:06:20.493Z,62.53
2023-02-23T06:08:48.442Z,62.94
2023-02-23T06:11:16.430Z,62.49
2023-02-23T06:13:44.824Z,62.25
2023-02-23T06:16:12.945Z,62.16
2023-02-23T06:18:41.562Z,62.23
2023-02-23T06:21:09.517Z,61.53
2023-02-23T06:23:38.314Z,62.10
2023-02-23T06:26:06.480Z,61.70
2023-02-23T06:28:34.449Z,61.57
2023-02-23T06:31:02.715Z,61.27
2023-02-23T06:33:30.810Z,60.87
2023-02-23T06:35:58.803Z,60.70
2023-02-23T06:38:27.989Z,60.71
2023-02-23T06:40:56.037Z,60.17
2023-02-23T06:43:24.122Z,60.35
2023-02-23T06:45:52.402Z,59.86
2023-02-23T06:48:20.598Z,59.38
2023-02-23T06:50:48.745Z,58.92
2023-02-23T06:53:16.767Z,59.07
2023-02-23T06:55:44.763Z,58.45
2023-02-23T06:58:13.057Z,58.20
2023-02-23T07:00:43.774Z,58.16
2023-02-23T07:03:12.068Z,57.49
2023-02-23T07:05:41.167Z,57.15
2023-02-23T07:08:09.447Z,57.06
2023-02-23T07:10:37.468Z,56.54
2023-02-23T07:13:05.486Z,56.19
2023-02-23T07:15:35.877Z,56.00
2023-02-23T07:18:03.978Z,55.77
2023-02-23T07:20:33.262Z,54.61
2023-02-23T07:23:02.270Z,53.19
2023-02-23T07:25:31.154Z,51.47
2023-02-23T07:27:59.351Z,48.97
2023-02-23T07:30:27.467Z,47.55
2023-02-23T07:32:55.583Z,47.51
2023-02-23T07:35:23.550Z,47.57
2023-02-23T07:37:51.718Z,47.72
2023-02-23T07:40:20.312Z,47.70
2023-02-23T07:42:48.506Z,47.50
2023-02-23T07:45:17.610Z,47.74
2023-02-23T07:47:45.652Z,48.03
2023-02-23T07:50:14.746Z,48.39
2023-02-23T07:52:43.545Z,48.58
2023-02-23T07:55:12.239Z,49.02
2023-02-23T07:57:40.506Z,48.99
2023-02-23T08:00:09.506Z,48.76
2023-02-23T08:02:44.324Z,48.94
2023-02-23T08:05:13.121Z,48.99
2023-02-23T08:07:41.186Z,49.06
2023-02-23T08:10:10.096Z,49.23
2023-02-23T08:12:38.385Z,49.73
2023-02-23T08:15:08.403Z,49.45
2023-02-23T08:17:37.671Z,49.60
2023-02-23T08:20:06.770Z,49.80
2023-02-23T08:22:48.404Z,50.08
2023-02-23T08:25:18.435Z,50.12
2023-02-23T08:27:47.589Z,50.45
2023-02-23T08:30:16.866Z,50.07
2023-02-23T08:32:45.472Z,50.25
2023-02-23T08:35:14.054Z,50.01
2023-02-23T08:37:42.037Z,49.78
2023-02-23T08:40:11.622Z,50.07
2023-02-23T08:42:39.704Z,50.03
2023-02-23T08:45:08.829Z,50.14
2023-02-23T08:47:37.167Z,49.50
2023-02-23T08:50:05.852Z,49.32
2023-02-23T08:52:34.330Z,49.11
2023-02-23T08:55:02.681Z,49.01
2023-02-23T08:57:33.755Z,48.91
2023-02-23T09:00:02.445Z,48.99
2023-02-23T09:02:30.601Z,48.92
2023-02-23T09:04:59.398Z,48.53
2023-02-23T09:07:27.579Z,48.59
2023-02-23T09:09:56.824Z,48.23
2023-02-23T09:12:25.474Z,48.44
2023-02-23T09:14:54.219Z,48.35
2023-02-23T09:17:23.343Z,48.40
2023-02-23T09:19:51.300Z,48.27
2023-02-23T09:22:20.007Z,48.23
2023-02-23T09:24:48.178Z,48.14
2023-02-23T09:27:16.247Z,47.54
2023-02-23T09:29:44.834Z,47.11
2023-02-23T09:32:13.187Z,47.24
2023-02-23T09:34:41.791Z,47.13
2023-02-23T09:37:09.717Z,46.77
2023-02-23T09:39:39.078Z,46.93
2023-02-23T09:42:17.261Z,46.40
2023-02-23T09:44:55.175Z,46.00
2023-02-23T09:47:30.851Z,46.32
2023-02-23T09:50:09.320Z,45.84
2023-02-23T09:52:54.735Z,45.94
2023-02-23T09:55:22.750Z,45.39
2023-02-23T09:57:50.964Z,45.55
2023-02-23T10:00:24.319Z,45.27
2023-02-23T10:03:24.728Z,45.11
2023-02-23T10:05:59.089Z,43.87
2023-02-23T10:09:05.382Z,43.90
2023-02-23T10:11:46.243Z,43.41
2023-02-23T10:14:17.181Z,42.47
2023-02-23T10:17:03.451Z,42.29
2023-02-23T10:19:44.661Z,41.58
2023-02-23T10:22:15.781Z,41.80
2023-02-23T10:24:51.237Z,42.19
2023-02-23T10:27:29.492Z,41.39
2023-02-23T10:30:02.012Z,40.92
2023-02-23T10:32:48.964Z,40.67
2023-02-23T10:35:21.131Z,40.81
2023-02-23T10:37:51.758Z,40.67
2023-02-23T10:40:26.334Z,40.03
2023-02-23T10:42:58.850Z,40.09
2023-02-23T10:45:28.692Z,39.86
2023-02-23T10:48:07.096Z,39.07
2023-02-23T10:50:39.295Z,39.14
2023-02-23T10:53:17.967Z,38.45
2023-02-23T10:55:47.486Z,37.02
2023-02-23T10:58:18.383Z,36.22
2023-02-23T11:01:03.552Z,35.88
2023-02-23T11:03:43.157Z,33.93
2023-02-23T11:06:34.039Z,32.94
2023-02-23T11:09:45.003Z,32.11
2023-02-23T11:12:29.742Z,30.77
2023-02-23T11:14:59.493Z,28.86
2023-02-23T11:17:36.976Z,26.98
2023-02-23T11:20:23.064Z,26.32
2023-02-23T11:22:52.398Z,26.22
2023-02-23T11:25:31.868Z,25.56
2023-02-23T11:28:01.083Z,25.47
2023-02-23T11:30:43.037Z,25.39
2023-02-23T11:33:18.032Z,25.37
2023-02-23T11:35:46.822Z,25.01
2023-02-23T11:38:27.842Z,25.08
2023-02-23T11:41:04.734Z,25.10
2023-02-23T11:43:33.175Z,25.53
2023-02-23T11:46:02.670Z,25.18
2023-02-23T11:48:38.788Z,25.21
2023-02-23T11:51:07.817Z,25.50
2023-02-23T11:53:45.306Z,25.10
2023-02-23T11:56:21.145Z,25.54
2023-02-23T11:58:58.055Z,24.99
2023-02-23T12:01:47.024Z,24.80
2023-02-23T12:04:30.429Z,25.88
2023-02-23T12:07:17.162Z,25.83
2023-02-23T12:09:47.878Z,26.00
2023-02-23T12:12:21.992Z,26.36
2023-02-23T12:14:57.147Z,26.71
2023-02-23T12:17:29.733Z,26.81
2023-02-23T12:20:11.185Z,27.40
2023-02-23T12:22:44.809Z,27.59
2023-02-23T12:25:41.039Z,27.75
2023-02-23T12:28:32.354Z,27.94
2023-02-23T12:31:16.795Z,27.88
2023-02-23T12:33:50.823Z,27.70
2023-02-23T12:36:30.154Z,28.35
2023-02-23T12:39:04.882Z,28.45
2023-02-23T12:41:43.918Z,28.72
2023-02-23T12:44:49.421Z,28.68
2023-02-23T12:47:31.857Z,28.73
2023-02-23T12:50:14.440Z,29.34
2023-02-23T12:52:49.636Z,30.18
2023-02-23T12:55:28.122Z,30.34
2023-02-23T12:58:06.231Z,30.55
2023-02-23T13:00:58.621Z,30.69
2023-02-23T13:03:37.622Z,30.94
2023-02-23T13:06:14.183Z,31.37
2023-02-23T13:09:03.361Z,31.34
2023-02-23T13:11:40.741Z,31.38
2023-02-23T13:14:26.440Z,31.34
2023-02-23T13:17:04.936Z,30.91
2023-02-23T13:19:42.486Z,30.88
2023-02-23T13:22:28.736Z,30.94
2023-02-23T13:25:04.594Z,31.02
2023-02-23T13:27:43.303Z,30.85
2023-02-23T13:30:12.485Z,31.14
2023-02-23T13:32:40.661Z,31.12
2023-02-23T13:35:20.488Z,31.29
2023-02-23T13:38:22.695Z,31.45
2023-02-23T13:40:58.886Z,31.34
2023-02-23T13:43:47.616Z,31.67
2023-02-23T13:46:22.372Z,32.04
2023-02-23T13:49:12.335Z,31.84
2023-02-23T13:51:50.647Z,32.13
2023-02-23T13:54:22.874Z,32.50
2023-02-23T13:56:55.448Z,32.59
2023-02-23T13:59:29.786Z,32.87
2023-02-23T14:02:02.199Z,32.99
2023-02-23T14:04:42.120Z,33.22
2023-02-23T14:07:10.312Z,33.57
2023-02-23T14:09:44.425Z,33.77
2023-02-23T14:12:20.779Z,33.90
2023-02-23T14:14:49.056Z,34.44
2023-02-23T14:17:19.905Z,35.19
2023-02-23T14:20:24.292Z,35.20
2023-02-23T14:23:15.128Z,35.04
2023-02-23T14:25:50.870Z,35.11
2023-02-23T14:28:27.754Z,35.23
2023-02-23T14:31:11.207Z,35.19
2023-02-23T14:33:42.756Z,35.32
2023-02-23T14:36:29.021Z,35.37
2023-02-23T14:38:57.078Z,35.77
2023-02-23T14:41:29.897Z,36.20
2023-02-23T14:44:17.140Z,36.50
2023-02-23T14:46:57.414Z,36.91
2023-02-23T14:49:28.213Z,37.17
2023-02-23T14:52:00.692Z,37.49
2023-02-23T14:54:32.657Z,38.03
2023-02-23T14:57:03.696Z,38.43
2023-02-23T14:59:42.670Z,38.36
2023-02-23T15:02:24.174Z,39.15
2023-02-23T15:04:53.054Z,39.35
2023-02-23T15:07:31.406Z,39.36
2023-02-23T15:10:01.728Z,39.87
2023-02-23T15:12:38.004Z,40.01
2023-02-23T15:15:18.052Z,40.16
2023-02-23T15:17:48.375Z,40.74
2023-02-23T15:20:32.701Z,41.20
2023-02-23T15:23:04.934Z,41.49
2023-02-23T15:25:36.852Z,42.01
2023-02-23T15:28:21.774Z,42.46
2023-02-23T15:30:51.239Z,42.47
2023-02-23T15:33:29.331Z,42.68
2023-02-23T15:36:07.178Z,42.94
2023-02-23T15:38:43.968Z,42.99
2023-02-23T15:41:19.463Z,43.54
2023-02-23T15:43:47.976Z,43.77
2023-02-23T15:46:25.232Z,44.79
2023-02-23T15:48:55.869Z,44.40
2023-02-23T15:51:38.216Z,44.80
2023-02-23T15:54:25.378Z,45.51
2023-02-23T15:57:14.274Z,45.38
2023-02-23T15:59:48.071Z,45.37
2023-02-23T16:02:19.537Z,46.12
2023-02-23T16:04:54.011Z,46.53
2023-02-23T16:07:43.589Z,46.65
2023-02-23T16:10:25.795Z,46.73
2023-02-23T16:12:55.114Z,47.38
2023-02-23T16:15:35.616Z,47.78
2023-02-23T16:18:12.963Z,48.19
2023-02-23T16:20:45.696Z,49.02
2023-02-23T16:23:35.641Z,48.77
2023-02-23T16:26:07.190Z,48.93
2023-02-23T16:28:37.303Z,49.06
2023-02-23T16:31:07.867Z,49.69
2023-02-23T16:33:53.107Z,50.30
2023-02-23T16:36:24.970Z,50.26
2023-02-23T16:38:53.037Z,50.23
2023-02-23T16:41:22.436Z,50.42
2023-02-23T16:43:52.866Z,50.89
2023-02-23T16:46:24.890Z,50.80
2023-02-23T16:48:53.116Z,51.17
2023-02-23T16:51:23.845Z,51.29
2023-02-23T16:53:53.304Z,51.33
2023-02-23T16:56:22.552Z,51.70
2023-02-23T16:58:58.406Z,51.73
2023-02-23T17:01:26.697Z,51.43
2023-02-23T17:03:55.063Z,51.52
2023-02-23T17:06:23.442Z,51.74
2023-02-23T17:08:58.064Z,51.85
2023-02-23T17:11:27.080Z,52.14
2023-02-23T17:13:55.251Z,52.36
2023-02-23T17:16:23.600Z,52.16
2023-02-23T17:18:51.988Z,52.21
2023-02-23T17:21:24.010Z,52.50
2023-02-23T17:23:53.561Z,52.20
2023-02-23T17:26:25.657Z,52.88
2023-02-23T17:28:54.203Z,52.85
2023-02-23T17:31:27.249Z,53.45
2023-02-23T17:33:55.977Z,53.32
2023-02-23T17:36:24.152Z,53.58
2023-02-23T17:38:58.652Z,53.61
2023-02-23T17:41:27.505Z,54.06
2023-02-23T17:43:58.506Z,54.06
2023-02-23T17:46:26.711Z,54.62
2023-02-23T17:48:56.193Z,54.64
2023-02-23T17:51:24.896Z,54.45
2023-02-23T17:53:53.766Z,54.58
2023-02-23T17:56:23.773Z,54.16
2023-02-23T17:58:51.957Z,54.34
2023-02-23T18:01:20.412Z,54.74
2023-02-23T18:03:50.148Z,54.61
2023-02-23T18:06:19.870Z,54.27
2023-02-23T18:08:48.228Z,54.21
2023-02-23T18:11:18.966Z,54.49
2023-02-23T18:13:51.440Z,54.34
2023-02-23T18:16:20.649Z,54.51
2023-02-23T18:18:49.527Z,54.37
2023-02-23T18:21:20.672Z,54.33
2023-02-23T18:23:50.322Z,54.39
2023-02-23T18:26:22.280Z,54.54
2023-02-23T18:28:51.424Z,54.28
2023-02-23T18:31:22.558Z,54.44
2023-02-23T18:33:53.049Z,54.54
2023-02-23T18:36:35.199Z,54.87
2023-02-23T18:39:08.301Z,54.69
2023-02-23T18:41:37.408Z,54.59
2023-02-23T18:44:08.436Z,55.37
2023-02-23T18:46:36.850Z,55.15
2023-02-23T18:49:06.261Z,55.08
2023-02-23T18:51:34.302Z,55.32
2023-02-23T18:54:09.109Z,55.27
2023-02-23T18:56:37.959Z,55.32
2023-02-23T18:59:06.503Z,55.28
2023-02-23T19:01:37.746Z,55.39
2023-02-23T19:04:08.029Z,55.23
2023-02-23T19:06:39.030Z,55.51
2023-02-23T19:09:13.964Z,55.48
2023-02-23T19:11:43.647Z,55.99
2023-02-23T19:14:16.121Z,55.96
2023-02-23T19:16:46.926Z,56.31
2023-02-23T19:19:17.369Z,56.63
2023-02-23T19:21:45.874Z,56.88
2023-02-23T19:24:13.944Z,57.04
2023-02-23T19:26:46.622Z,57.01
2023-02-23T19:29:14.589Z,56.81
2023-02-23T19:31:42.614Z,57.10
2023-02-23T19:34:10.836Z,57.01
2023-02-23T19:36:40.341Z,57.05
2023-02-23T19:39:11.293Z,57.00
2023-02-23T19:41:40.275Z,57.05
2023-02-23T19:44:10.931Z,56.82
2023-02-23T19:46:43.168Z,57.05
2023-02-23T19:49:11.971Z,57.60
2023-02-23T19:51:40.762Z,57.96
2023-02-23T19:54:08.931Z,57.92
2023-02-23T19:56:38.637Z,57.74
2023-02-23T19:59:06.621Z,57.85
2023-02-23T20:01:36.178Z,57.70
2023-02-23T20:04:09.516Z,57.65
2023-02-23T20:06:47.273Z,57.66
2023-02-23T20:09:15.705Z,57.43
2023-02-23T20:11:43.980Z,57.84
2023-02-23T20:14:12.615Z,58.24
2023-02-23T20:16:40.759Z,58.85
2023-02-23T20:19:09.222Z,59.40
2023-02-23T20:21:37.506Z,59.08
2023-02-23T20:24:06.176Z,59.47
2023-02-23T20:26:37.288Z,59.42
2023-02-23T20:29:11.062Z,59.06
2023-02-23T20:31:42.837Z,59.19
2023-02-23T20:34:12.226Z,58.90
2023-02-23T20:36:40.356Z,59.77
2023-02-23T20:39:10.699Z,59.70
2023-02-23T20:41:44.179Z,59.56
2023-02-23T20:44:14.087Z,60.47
2023-02-23T20:46:43.924Z,60.52
2023-02-23T20:49:18.533Z,60.60
2023-02-23T20:51:48.717Z,61.25
2023-02-23T20:54:17.090Z,61.11
2023-02-23T20:56:45.210Z,61.33
2023-02-23T20:59:14.100Z,61.77
2023-02-23T21:01:43.860Z,61.38
2023-02-23T21:04:13.296Z,61.06
2023-02-23T21:06:41.488Z,61.05
2023-02-23T21:09:18.149Z,60.63
2023-02-23T21:11:48.046Z,60.65
2023-02-23T21:14:17.632Z,60.27
2023-02-23T21:16:47.039Z,60.63
2023-02-23T21:19:17.438Z,60.89
2023-02-23T21:21:51.109Z,60.41
2023-02-23T21:24:19.518Z,60.61
2023-02-23T21:26:48.066Z,60.65
2023-02-23T21:29:16.809Z,60.33
2023-02-23T21:31:46.942Z,60.51
2023-02-23T21:34:21.504Z,60.50
2023-02-23T21:36:52.027Z,60.63
2023-02-23T21:39:21.667Z,60.51
2023-02-23T21:41:50.037Z,60.86
2023-02-23T21:44:18.204Z,60.37
2023-02-23T21:46:46.398Z,60.54
2023-02-23T21:49:14.647Z,60.73
2023-02-23T21:51:42.826Z,61.06
2023-02-23T21:54:11.713Z,60.55
2023-02-23T21:56:39.832Z,60.47
2023-02-23T21:59:11.021Z,60.56
2023-02-23T22:01:40.927Z,60.64
2023-02-23T22:04:13.938Z,60.97
2023-02-23T22:06:44.360Z,60.76
2023-02-23T22:09:15.754Z,60.78
2023-02-23T22:11:47.246Z,61.08
2023-02-23T22:14:18.882Z,60.76
2023-02-23T22:16:47.975Z,61.17
2023-02-23T22:19:19.519Z,61.44
2023-02-23T22:21:48.550Z,61.45
2023-02-23T22:24:17.782Z,61.30
2023-02-23T22:26:50.662Z,61.13
2023-02-23T22:29:18.820Z,61.32
2023-02-23T22:31:47.282Z,61.27
2023-02-23T22:34:15.881Z,61.20
2023-02-23T22:36:44.457Z,61.20
2023-02-23T22:39:16.531Z,61.21
2023-02-23T22:41:46.389Z,61.40
2023-02-23T22:44:17.644Z,61.56
2023-02-23T22:46:48.296Z,61.31
2023-02-23T22:49:19.972Z,61.57
2023-02-23T22:51:50.586Z,61.60
2023-02-23T22:54:20.730Z,61.76
2023-02-23T22:56:49.016Z,61.28
2023-02-23T22:59:20.763Z,61.28
2023-02-23T23:01:50.524Z,61.31
2023-02-23T23:04:22.173Z,61.85
2023-02-23T23:06:50.719Z,61.81
2023-02-23T23:09:21.323Z,61.79
2023-02-23T23:11:50.980Z,61.89
2023-02-23T23:14:19.737Z,62.29
2023-02-23T23:16:48.533Z,62.52
2023-02-23T23:19:24.041Z,62.54
2023-02-23T23:21:55.459Z,62.76
2023-02-23T23:24:24.713Z,62.72
2023-02-23T23:26:55.543Z,62.73
2023-02-23T23:29:26.066Z,63.10
2023-02-23T23:31:56.998Z,62.67
2023-02-23T23:34:25.536Z,62.64
2023-02-23T23:36:55.360Z,62.90
2023-02-23T23:39:26.124Z,63.11
2023-02-23T23:41:54.960Z,63.57
2023-02-23T23:44:28.985Z,63.19
2023-02-23T23:46:58.179Z,63.70
2023-02-23T23:49:26.225Z,63.65
2023-02-23T23:51:58.872Z,64.29
2023-02-23T23:54:32.580Z,64.92
2023-02-23T23:57:01.664Z,64.19
2023-02-23T23:59:31.934Z,64.36
